createdAt,value
2019-01-05T00:00:05.704Z,94.00
2019-01-05T00:01:05.014Z,94.10
2019-01-05T00:02:05.074Z,94.00
2019-01-05T00:03:07.718Z,94.10
2019-01-05T00:04:05.680Z,94.10
2019-01-05T00:05:05.812Z,94.10
2019-01-05T00:06:08.386Z,94.10
2019-01-05T00:07:05.426Z,94.10
2019-01-05T00:08:13.068Z,94.10
2019-01-05T00:09:08.684Z,94.10
2019-01-05T00:10:05.614Z,94.00
2019-01-05T00:11:08.296Z,94.10
2019-01-05T00:12:07.980Z,94.10
2019-01-05T00:13:08.636Z,94.10
2019-01-05T00:14:05.626Z,94.10
2019-01-05T00:15:05.644Z,94.10
2019-01-05T00:16:08.469Z,94.10
2019-01-05T00:17:05.503Z,94.10
2019-01-05T00:18:05.635Z,94.10
2019-01-05T00:19:08.165Z,94.10
2019-01-05T00:20:10.187Z,94.10
2019-01-05T00:21:07.678Z,94.00
2019-01-05T00:22:08.132Z,94.10
2019-01-05T00:23:05.096Z,94.10
2019-01-05T00:24:07.652Z,94.10
2019-01-05T00:25:05.579Z,94.10
2019-01-05T00:26:05.691Z,94.10
2019-01-05T00:27:08.405Z,94.10
2019-01-05T00:28:07.911Z,94.10
2019-01-05T00:29:08.444Z,94.00
2019-01-05T00:30:07.941Z,94.00
2019-01-05T00:31:08.656Z,94.00
2019-01-05T00:32:05.700Z,94.00
2019-01-05T00:33:08.349Z,94.00
2019-01-05T00:34:05.249Z,94.00
2019-01-05T00:35:07.805Z,94.00
2019-01-05T00:36:05.719Z,94.00
2019-01-05T00:37:10.823Z,94.00
2019-01-05T00:38:08.325Z,94.00
2019-01-05T00:39:10.396Z,94.00
2019-01-05T00:40:07.874Z,94.00
2019-01-05T00:41:05.734Z,94.10
2019-01-05T00:42:13.322Z,94.10
2019-01-05T00:43:07.716Z,94.00
2019-01-05T00:44:10.801Z,94.00
2019-01-05T00:45:08.293Z,94.00
2019-01-05T00:46:05.219Z,94.00
2019-01-05T00:47:05.265Z,94.00
2019-01-05T00:48:07.932Z,94.00
2019-01-05T00:49:08.526Z,94.00
2019-01-05T00:50:05.778Z,94.00
2019-01-05T00:51:05.948Z,94.00
2019-01-05T00:52:10.085Z,93.90
2019-01-05T00:53:05.027Z,93.90
2019-01-05T00:54:05.085Z,93.90
2019-01-05T00:55:05.212Z,93.90
2019-01-05T00:56:05.322Z,94.00
2019-01-05T00:57:05.392Z,93.90
2019-01-05T00:58:05.559Z,93.90
2019-01-05T00:59:05.588Z,93.90
2019-01-05T01:00:05.817Z,93.90
2019-01-05T01:01:06.063Z,93.90
2019-01-05T01:02:05.183Z,93.90
2019-01-05T01:03:05.204Z,93.90
2019-01-05T01:04:05.335Z,93.90
2019-01-05T01:05:08.318Z,93.90
2019-01-05T01:06:05.246Z,93.90
2019-01-05T01:07:12.974Z,93.80
2019-01-05T01:08:05.929Z,93.80
2019-01-05T01:09:08.520Z,93.80
2019-01-05T01:10:05.447Z,93.80
2019-01-05T01:11:05.570Z,93.80
2019-01-05T01:12:05.633Z,93.80
2019-01-05T01:13:05.764Z,93.80
2019-01-05T01:14:08.557Z,93.80
2019-01-05T01:15:08.005Z,93.90
2019-01-05T01:16:06.088Z,93.80
2019-01-05T01:17:05.248Z,93.80
2019-01-05T01:18:05.408Z,93.80
2019-01-05T01:19:08.013Z,93.90
2019-01-05T01:20:05.974Z,93.80
2019-01-05T01:21:07.604Z,93.90
2019-01-05T01:22:08.064Z,93.80
2019-01-05T01:23:05.093Z,93.90
2019-01-05T01:24:05.363Z,93.80
2019-01-05T01:25:05.440Z,93.80
2019-01-05T01:26:05.538Z,93.80
2019-01-05T01:27:08.304Z,93.80
2019-01-05T01:28:07.861Z,93.80
2019-01-05T01:29:05.766Z,93.80
2019-01-05T01:30:05.353Z,93.80
2019-01-05T01:31:05.497Z,93.70
2019-01-05T01:32:08.091Z,93.70
2019-01-05T01:33:05.221Z,93.70
2019-01-05T01:34:07.833Z,93.70
2019-01-05T01:35:05.826Z,93.70
2019-01-05T01:36:06.006Z,93.70
2019-01-05T01:37:07.634Z,93.70
2019-01-05T01:38:05.569Z,93.70
2019-01-05T01:39:08.160Z,93.70
2019-01-05T01:40:05.033Z,93.70
2019-01-05T01:41:07.601Z,93.70
2019-01-05T01:42:05.545Z,93.70
2019-01-05T01:43:08.138Z,93.70
2019-01-05T01:44:05.159Z,93.70
2019-01-05T01:45:07.766Z,93.70
2019-01-05T01:46:05.716Z,93.70
2019-01-05T01:47:08.268Z,93.70
2019-01-05T01:48:05.170Z,93.80
2019-01-05T01:49:07.750Z,93.70
2019-01-05T01:50:05.756Z,93.70
2019-01-05T01:51:05.969Z,93.80
2019-01-05T01:52:07.572Z,93.70
2019-01-05T01:53:05.568Z,93.70
2019-01-05T01:54:08.193Z,93.70
2019-01-05T01:55:05.098Z,93.70
2019-01-05T01:56:05.289Z,93.80
2019-01-05T01:57:08.009Z,93.70
2019-01-05T01:58:05.985Z,93.70
2019-01-05T01:59:05.056Z,93.90
2019-01-05T02:00:05.105Z,93.90
2019-01-05T02:01:10.248Z,93.80
2019-01-05T02:02:10.411Z,93.80
2019-01-05T02:03:06.423Z,93.80
2019-01-05T02:04:05.686Z,94.00
2019-01-05T02:05:05.854Z,94.00
2019-01-05T02:06:11.345Z,93.90
2019-01-05T02:07:05.388Z,93.90
2019-01-05T02:08:08.073Z,93.90
2019-01-05T02:09:05.078Z,94.00
2019-01-05T02:10:07.737Z,94.10
2019-01-05T02:11:08.365Z,94.10
2019-01-05T02:12:07.926Z,94.00
2019-01-05T02:13:08.416Z,94.10
2019-01-05T02:14:05.497Z,94.00
2019-01-05T02:15:08.260Z,94.20
2019-01-05T02:16:07.771Z,94.00
2019-01-05T02:17:08.269Z,94.10
2019-01-05T02:18:05.395Z,94.10
2019-01-05T02:19:05.596Z,94.00
2019-01-05T02:20:05.673Z,94.00
2019-01-05T02:21:08.314Z,94.10
2019-01-05T02:22:07.824Z,94.20
2019-01-05T02:23:05.794Z,94.20
2019-01-05T02:24:05.897Z,94.30
2019-01-05T02:25:05.988Z,94.30
2019-01-05T02:26:04.995Z,94.30
2019-01-05T02:27:05.078Z,94.30
2019-01-05T02:28:07.633Z,94.30
2019-01-05T02:29:05.564Z,94.30
2019-01-05T02:30:08.494Z,94.20
2019-01-05T02:31:08.064Z,94.30
2019-01-05T02:32:11.122Z,94.40
2019-01-05T02:33:05.063Z,94.40
2019-01-05T02:34:05.182Z,94.40
2019-01-05T02:35:05.378Z,94.20
2019-01-05T02:36:05.417Z,94.40
2019-01-05T02:37:05.563Z,94.30
2019-01-05T02:38:05.597Z,94.40
2019-01-05T02:39:08.203Z,94.40
2019-01-05T02:40:07.732Z,94.50
2019-01-05T02:41:08.316Z,94.50
2019-01-05T02:42:05.329Z,94.50
2019-01-05T02:43:05.428Z,94.50
2019-01-05T02:44:08.110Z,94.50
2019-01-05T02:45:07.634Z,94.50
2019-01-05T02:46:05.588Z,94.50
2019-01-05T02:47:10.746Z,94.50
2019-01-05T02:48:05.787Z,94.60
2019-01-05T02:49:06.016Z,94.50
2019-01-05T02:50:07.963Z,94.50
2019-01-05T02:51:06.108Z,94.50
2019-01-05T02:52:05.391Z,94.50
2019-01-05T02:53:05.525Z,94.50
2019-01-05T02:54:05.626Z,94.50
2019-01-05T02:55:08.370Z,94.50
2019-01-05T02:56:07.832Z,94.60
2019-01-05T02:57:08.445Z,94.60
2019-01-05T02:58:05.515Z,94.60
2019-01-05T02:59:08.170Z,94.50
2019-01-05T03:00:05.101Z,94.60
2019-01-05T03:01:07.673Z,94.60
2019-01-05T03:02:05.610Z,94.60
2019-01-05T03:03:05.747Z,94.60
2019-01-05T03:04:08.458Z,94.60
2019-01-05T03:05:05.516Z,94.60
2019-01-05T03:06:05.589Z,94.60
2019-01-05T03:07:05.700Z,94.60
2019-01-05T03:08:08.274Z,94.60
2019-01-05T03:09:07.676Z,94.60
2019-01-05T03:10:05.877Z,94.60
2019-01-05T03:11:05.966Z,94.60
2019-01-05T03:12:07.897Z,94.60
2019-01-05T03:13:05.891Z,94.60
2019-01-05T03:14:06.171Z,94.60
2019-01-05T03:15:05.311Z,94.70
2019-01-05T03:16:05.506Z,94.60
2019-01-05T03:17:08.167Z,94.60
2019-01-05T03:18:05.094Z,94.60
2019-01-05T03:19:05.143Z,94.60
2019-01-05T03:20:05.226Z,94.60
2019-01-05T03:21:05.305Z,94.60
2019-01-05T03:22:07.867Z,94.60
2019-01-05T03:23:05.894Z,94.70
2019-01-05T03:24:06.026Z,94.60
2019-01-05T03:25:05.108Z,94.70
2019-01-05T03:26:05.361Z,94.70
2019-01-05T03:27:05.411Z,94.70
2019-01-05T03:28:08.073Z,94.70
2019-01-05T03:29:05.047Z,94.70
2019-01-05T03:30:05.650Z,94.70
2019-01-05T03:31:05.711Z,94.70
2019-01-05T03:32:08.396Z,94.70
2019-01-05T03:33:05.361Z,94.70
2019-01-05T03:34:05.392Z,94.70
2019-01-05T03:35:10.557Z,94.70
2019-01-05T03:36:05.579Z,94.70
2019-01-05T03:37:05.838Z,94.70
2019-01-05T03:38:08.619Z,94.80
2019-01-05T03:39:08.108Z,94.80
2019-01-05T03:40:07.634Z,94.80
2019-01-05T03:41:05.629Z,94.80
2019-01-05T03:42:05.635Z,94.80
2019-01-05T03:43:08.393Z,94.80
2019-01-05T03:44:05.603Z,94.80
2019-01-05T03:45:05.858Z,94.80
2019-01-05T03:46:13.669Z,94.90
2019-01-05T03:47:05.638Z,94.90
2019-01-05T03:48:08.195Z,94.90
2019-01-05T03:49:07.673Z,94.90
2019-01-05T03:50:05.784Z,94.90
2019-01-05T03:51:06.119Z,94.80
2019-01-05T03:52:05.330Z,94.80
2019-01-05T03:53:07.981Z,94.90
2019-01-05T03:54:06.062Z,94.90
2019-01-05T03:55:05.241Z,94.90
2019-01-05T03:56:10.739Z,94.90
2019-01-05T03:57:08.206Z,94.90
2019-01-05T03:58:05.315Z,94.90
2019-01-05T03:59:05.469Z,94.90
2019-01-05T04:00:05.529Z,94.90
2019-01-05T04:01:05.629Z,94.90
2019-01-05T04:02:08.201Z,94.90
2019-01-05T04:03:05.336Z,94.90
2019-01-05T04:04:07.995Z,95.00
2019-01-05T04:05:06.040Z,94.90
2019-01-05T04:06:05.076Z,94.90
2019-01-05T04:07:05.267Z,94.90
2019-01-05T04:08:07.822Z,94.90
2019-01-05T04:09:08.230Z,94.90
2019-01-05T04:10:05.140Z,94.90
2019-01-05T04:11:07.662Z,94.90
2019-01-05T04:12:05.788Z,95.00
2019-01-05T04:13:05.861Z,94.90
2019-01-05T04:14:08.465Z,94.90
2019-01-05T04:15:05.671Z,94.90
2019-01-05T04:16:08.270Z,95.10
2019-01-05T04:17:05.365Z,94.90
2019-01-05T04:18:05.450Z,95.00
2019-01-05T04:19:05.488Z,94.90
2019-01-05T04:20:08.121Z,94.90
2019-01-05T04:21:05.134Z,95.00
2019-01-05T04:22:12.868Z,94.90
2019-01-05T04:23:05.907Z,94.90
2019-01-05T04:24:05.972Z,95.00
2019-01-05T04:25:07.723Z,94.90
2019-01-05T04:26:05.801Z,95.00
2019-01-05T04:27:10.891Z,95.00
2019-01-05T04:28:05.862Z,95.00
2019-01-05T04:29:08.485Z,95.00
2019-01-05T04:30:07.992Z,94.90
2019-01-05T04:31:05.044Z,94.90
2019-01-05T04:32:07.662Z,95.00
2019-01-05T04:33:05.535Z,95.00
2019-01-05T04:34:05.572Z,95.00
2019-01-05T04:35:08.215Z,94.90
2019-01-05T04:36:05.329Z,94.90
2019-01-05T04:37:07.893Z,94.90
2019-01-05T04:38:05.839Z,94.80
2019-01-05T04:39:06.056Z,94.90
2019-01-05T04:40:07.865Z,94.90
2019-01-05T04:41:08.374Z,94.80
2019-01-05T04:42:05.298Z,94.80
2019-01-05T04:43:07.919Z,94.80
2019-01-05T04:44:05.969Z,94.80
2019-01-05T04:45:07.533Z,94.70
2019-01-05T04:46:05.568Z,94.80
2019-01-05T04:47:05.640Z,94.70
2019-01-05T04:48:05.770Z,94.70
2019-01-05T04:49:05.905Z,94.70
2019-01-05T04:50:08.479Z,94.70
2019-01-05T04:51:08.079Z,94.90
2019-01-05T04:52:05.018Z,94.70
2019-01-05T04:53:07.573Z,94.60
2019-01-05T04:54:08.038Z,94.60
2019-01-05T04:55:08.641Z,94.70
2019-01-05T04:56:05.664Z,94.60
2019-01-05T04:57:05.674Z,94.60
2019-01-05T04:58:05.830Z,94.60
2019-01-05T04:59:11.114Z,94.60
2019-01-05T05:00:05.191Z,94.60
2019-01-05T05:01:05.273Z,94.60
2019-01-05T05:02:08.321Z,94.60
2019-01-05T05:03:05.434Z,94.60
2019-01-05T05:04:05.787Z,94.60
2019-01-05T05:05:05.842Z,94.60
2019-01-05T05:06:05.958Z,94.60
2019-01-05T05:07:07.643Z,94.60
2019-01-05T05:08:05.685Z,94.60
2019-01-05T05:09:08.287Z,94.60
2019-01-05T05:10:05.332Z,94.60
2019-01-05T05:11:05.438Z,94.50
2019-01-05T05:12:05.524Z,94.50
2019-01-05T05:13:05.609Z,94.50
2019-01-05T05:14:05.777Z,94.50
2019-01-05T05:15:06.034Z,94.50
2019-01-05T05:16:07.803Z,94.60
2019-01-05T05:17:08.487Z,94.60
2019-01-05T05:18:05.450Z,94.60
2019-01-05T05:19:08.010Z,94.60
2019-01-05T05:20:05.964Z,94.60
2019-01-05T05:21:05.156Z,94.70
2019-01-05T05:22:07.784Z,94.70
2019-01-05T05:23:05.730Z,94.70
2019-01-05T05:24:05.871Z,94.60
2019-01-05T05:25:08.074Z,94.70
2019-01-05T05:26:05.206Z,94.70
2019-01-05T05:27:05.390Z,94.70
2019-01-05T05:28:05.491Z,94.70
2019-01-05T05:29:05.772Z,94.70
2019-01-05T05:30:08.463Z,94.70
2019-01-05T05:31:05.470Z,94.70
2019-01-05T05:32:08.008Z,94.70
2019-01-05T05:33:06.005Z,94.70
2019-01-05T05:34:05.120Z,94.70
2019-01-05T05:35:07.775Z,94.80
2019-01-05T05:36:05.753Z,94.80
2019-01-05T05:37:05.974Z,94.80
2019-01-05T05:38:05.211Z,94.80
2019-01-05T05:39:05.429Z,94.80
2019-01-05T05:40:05.585Z,94.80
2019-01-05T05:41:08.291Z,94.80
2019-01-05T05:42:05.477Z,94.80
2019-01-05T05:43:05.643Z,94.80
2019-01-05T05:44:05.747Z,94.90
2019-01-05T05:45:08.429Z,94.90
2019-01-05T05:46:07.937Z,94.90
2019-01-05T05:47:11.048Z,94.90
2019-01-05T05:48:07.544Z,94.90
2019-01-05T05:49:05.440Z,94.90
2019-01-05T05:50:07.958Z,94.90
2019-01-05T05:51:10.984Z,94.90
2019-01-05T05:52:14.291Z,94.90
2019-01-05T05:53:07.910Z,94.90
2019-01-05T05:54:05.967Z,94.90
2019-01-05T05:55:05.144Z,94.90
2019-01-05T05:56:05.437Z,94.90
2019-01-05T05:57:08.122Z,94.90
2019-01-05T05:58:07.615Z,94.90
2019-01-05T05:59:08.187Z,94.90
2019-01-05T06:00:05.106Z,94.90
2019-01-05T06:01:05.202Z,95.00
2019-01-05T06:02:07.786Z,95.00
2019-01-05T06:03:05.737Z,94.90
2019-01-05T06:04:05.822Z,95.00
2019-01-05T06:05:05.968Z,95.00
2019-01-05T06:06:07.554Z,95.00
2019-01-05T06:07:05.481Z,95.00
2019-01-05T06:08:08.213Z,95.00
2019-01-05T06:09:10.277Z,95.00
2019-01-05T06:10:05.321Z,95.00
2019-01-05T06:11:05.469Z,95.00
2019-01-05T06:12:05.567Z,95.00
2019-01-05T06:13:05.577Z,95.00
2019-01-05T06:14:05.554Z,95.00
2019-01-05T06:15:05.605Z,95.10
2019-01-05T06:16:08.161Z,95.10
2019-01-05T06:17:05.730Z,95.10
2019-01-05T06:18:08.539Z,95.10
2019-01-05T06:19:05.565Z,95.10
2019-01-05T06:20:05.633Z,95.10
2019-01-05T06:21:08.221Z,95.10
2019-01-05T06:22:05.138Z,95.10
2019-01-05T06:23:05.292Z,95.10
2019-01-05T06:24:05.453Z,95.10
2019-01-05T06:25:05.490Z,95.10
2019-01-05T06:26:08.076Z,95.10
2019-01-05T06:27:06.009Z,95.10
2019-01-05T06:28:05.097Z,95.10
2019-01-05T06:29:07.789Z,95.10
2019-01-05T06:30:08.436Z,95.10
2019-01-05T06:31:05.575Z,95.10
2019-01-05T06:32:08.257Z,95.10
2019-01-05T06:33:05.170Z,95.10
2019-01-05T06:34:05.177Z,95.10
2019-01-05T06:35:05.283Z,95.20
2019-01-05T06:36:08.011Z,95.20
2019-01-05T06:37:07.702Z,95.40
2019-01-05T06:38:05.694Z,95.20
2019-01-05T06:39:05.811Z,95.20
2019-01-05T06:40:05.884Z,95.20
2019-01-05T06:41:07.217Z,95.20
2019-01-05T06:42:05.524Z,95.20
2019-01-05T06:43:05.659Z,95.20
2019-01-05T06:44:05.969Z,95.20
2019-01-05T06:45:05.119Z,95.20
2019-01-05T06:46:05.255Z,95.20
2019-01-05T06:47:05.287Z,95.30
2019-01-05T06:48:05.504Z,95.20
2019-01-05T06:49:05.612Z,95.20
2019-01-05T06:50:05.093Z,95.20
2019-01-05T06:51:05.328Z,95.20
2019-01-05T06:52:07.896Z,95.20
2019-01-05T06:53:05.960Z,95.30
2019-01-05T06:54:05.025Z,95.30
2019-01-05T06:55:07.633Z,95.30
2019-01-05T06:56:05.586Z,95.30
2019-01-05T06:57:05.802Z,95.30
2019-01-05T06:58:05.905Z,95.30
2019-01-05T06:59:05.973Z,95.30
2019-01-05T07:00:05.105Z,95.50
2019-01-05T07:01:07.780Z,95.50
2019-01-05T07:02:05.665Z,95.50
2019-01-05T07:03:05.812Z,95.50
2019-01-05T07:04:05.908Z,95.50
2019-01-05T07:05:06.032Z,95.50
2019-01-05T07:06:10.176Z,95.50
2019-01-05T07:07:05.261Z,95.50
2019-01-05T07:08:05.403Z,95.50
2019-01-05T07:09:13.073Z,95.50
2019-01-05T07:10:07.515Z,95.50
2019-01-05T07:11:08.040Z,95.50
2019-01-05T07:12:05.138Z,95.50
2019-01-05T07:13:08.161Z,95.60
2019-01-05T07:14:05.307Z,95.60
2019-01-05T07:15:05.502Z,95.60
2019-01-05T07:16:08.255Z,95.50
2019-01-05T07:17:07.766Z,95.60
2019-01-05T07:18:05.738Z,95.50
2019-01-05T07:19:08.374Z,95.60
2019-01-05T07:20:05.468Z,95.60
2019-01-05T07:21:05.965Z,95.60
2019-01-05T07:22:05.202Z,95.60
2019-01-05T07:23:05.430Z,95.60
2019-01-05T07:24:05.519Z,95.60
2019-01-05T07:25:08.260Z,95.60
2019-01-05T07:26:05.358Z,95.60
2019-01-05T07:27:10.529Z,95.60
2019-01-05T07:28:08.052Z,95.70
2019-01-05T07:29:05.917Z,95.70
2019-01-05T07:30:05.711Z,95.70
2019-01-05T07:31:08.326Z,95.70
2019-01-05T07:32:12.967Z,95.80
2019-01-05T07:33:05.917Z,95.60
2019-01-05T07:34:06.028Z,95.80
2019-01-05T07:35:05.103Z,95.80
2019-01-05T07:36:05.138Z,95.80
2019-01-05T07:37:05.406Z,95.80
2019-01-05T07:38:05.522Z,95.80
2019-01-05T07:39:08.262Z,95.80
2019-01-05T07:40:05.380Z,95.70
2019-01-05T07:41:05.503Z,95.70
2019-01-05T07:42:08.151Z,95.70
2019-01-05T07:43:05.087Z,95.70
2019-01-05T07:44:05.133Z,95.80
2019-01-05T07:45:05.156Z,95.80
2019-01-05T07:46:05.193Z,95.70
2019-01-05T07:47:07.797Z,95.70
2019-01-05T07:48:05.904Z,95.80
2019-01-05T07:49:07.563Z,95.80
2019-01-05T07:50:08.173Z,95.80
2019-01-05T07:51:05.154Z,95.70
2019-01-05T07:52:05.294Z,95.70
2019-01-05T07:53:05.400Z,95.90
2019-01-05T07:54:05.482Z,95.80
2019-01-05T07:55:05.685Z,95.80
2019-01-05T07:56:08.322Z,95.90
2019-01-05T07:57:05.254Z,95.90
2019-01-05T07:58:07.976Z,95.90
2019-01-05T07:59:06.045Z,95.90
2019-01-05T08:00:05.136Z,96.00
2019-01-05T08:01:07.833Z,95.90
2019-01-05T08:02:08.324Z,95.90
2019-01-05T08:03:05.257Z,95.90
2019-01-05T08:04:05.475Z,95.90
2019-01-05T08:05:05.570Z,95.90
2019-01-05T08:06:05.687Z,95.90
2019-01-05T08:07:08.302Z,95.90
2019-01-05T08:08:07.745Z,95.90
2019-01-05T08:09:05.659Z,95.90
2019-01-05T08:10:08.255Z,95.90
2019-01-05T08:11:07.787Z,95.90
2019-01-05T08:12:08.349Z,95.90
2019-01-05T08:13:05.367Z,95.90
2019-01-05T08:14:08.041Z,95.90
2019-01-05T08:15:07.573Z,95.90
2019-01-05T08:16:05.676Z,95.90
2019-01-05T08:17:05.960Z,95.90
2019-01-05T08:18:05.173Z,95.90
2019-01-05T08:19:05.529Z,96.00
2019-01-05T08:20:05.616Z,95.90
2019-01-05T08:21:08.340Z,96.00
2019-01-05T08:22:07.815Z,96.00
2019-01-05T08:23:05.781Z,96.00
2019-01-05T08:24:05.941Z,96.00
2019-01-05T08:25:07.511Z,96.00
2019-01-05T08:26:08.074Z,96.00
2019-01-05T08:27:05.139Z,96.00
2019-01-05T08:28:05.436Z,96.00
2019-01-05T08:29:05.646Z,96.00
2019-01-05T08:30:05.207Z,96.00
2019-01-05T08:31:07.792Z,96.00
2019-01-05T08:32:05.859Z,96.00
2019-01-05T08:33:05.977Z,96.00
2019-01-05T08:34:07.579Z,96.00
2019-01-05T08:35:05.486Z,96.00
2019-01-05T08:36:05.605Z,96.00
2019-01-05T08:37:05.753Z,96.00
2019-01-05T08:38:05.860Z,96.00
2019-01-05T08:39:05.919Z,96.00
2019-01-05T08:40:07.562Z,96.00
2019-01-05T08:41:07.998Z,96.00
2019-01-05T08:42:13.733Z,96.00
2019-01-05T08:43:10.819Z,96.00
2019-01-05T08:44:05.859Z,96.00
2019-01-05T08:45:08.399Z,96.00
2019-01-05T08:46:07.898Z,96.00
2019-01-05T08:47:08.542Z,96.00
2019-01-05T08:48:08.247Z,96.10
2019-01-05T08:49:10.321Z,96.10
2019-01-05T08:50:07.763Z,96.10
2019-01-05T08:51:05.788Z,96.00
2019-01-05T08:52:08.411Z,96.10
2019-01-05T08:53:05.351Z,96.10
2019-01-05T08:54:08.033Z,96.10
2019-01-05T08:55:05.051Z,96.10
2019-01-05T08:56:05.227Z,96.10
2019-01-05T08:57:05.346Z,96.10
2019-01-05T08:58:05.373Z,96.10
2019-01-05T08:59:07.903Z,96.10
2019-01-05T09:00:05.965Z,96.10
2019-01-05T09:01:05.211Z,96.10
2019-01-05T09:02:05.264Z,96.10
2019-01-05T09:03:05.358Z,96.20
2019-01-05T09:04:05.373Z,96.10
2019-01-05T09:05:08.122Z,96.10
2019-01-05T09:06:05.077Z,96.10
2019-01-05T09:07:05.126Z,96.30
2019-01-05T09:08:05.237Z,96.20
2019-01-05T09:09:06.153Z,96.30
2019-01-05T09:10:05.383Z,96.30
2019-01-05T09:11:05.488Z,96.30
2019-01-05T09:12:08.107Z,96.30
2019-01-05T09:13:07.634Z,96.20
2019-01-05T09:14:05.578Z,96.30
2019-01-05T09:15:05.739Z,96.30
2019-01-05T09:16:10.898Z,96.30
2019-01-05T09:17:08.463Z,96.30
2019-01-05T09:18:10.531Z,96.30
2019-01-05T09:19:05.495Z,96.30
2019-01-05T09:20:08.152Z,96.30
2019-01-05T09:21:05.099Z,96.30
2019-01-05T09:22:05.323Z,96.30
2019-01-05T09:23:07.637Z,96.40
2019-01-05T09:24:05.661Z,96.30
2019-01-05T09:25:05.709Z,96.40
2019-01-05T09:26:05.888Z,96.40
2019-01-05T09:27:07.754Z,96.40
2019-01-05T09:28:08.220Z,96.40
2019-01-05T09:29:05.165Z,96.50
2019-01-05T09:30:05.739Z,96.40
2019-01-05T09:31:05.872Z,96.40
2019-01-05T09:32:08.590Z,96.40
2019-01-05T09:33:08.303Z,96.40
2019-01-05T09:34:05.336Z,96.40
2019-01-05T09:35:10.550Z,96.50
2019-01-05T09:36:08.017Z,96.50
2019-01-05T09:37:08.429Z,96.40
2019-01-05T09:38:08.008Z,96.40
2019-01-05T09:39:08.518Z,96.50
2019-01-05T09:40:05.456Z,96.50
2019-01-05T09:41:05.495Z,96.50
2019-01-05T09:42:08.141Z,96.50
2019-01-05T09:43:05.073Z,96.40
2019-01-05T09:44:05.253Z,96.50
2019-01-05T09:45:05.335Z,96.40
2019-01-05T09:46:08.103Z,96.50
2019-01-05T09:47:07.622Z,96.50
2019-01-05T09:48:05.681Z,96.40
2019-01-05T09:49:05.851Z,96.50
2019-01-05T09:50:06.106Z,96.50
2019-01-05T09:51:05.190Z,96.50
2019-01-05T09:52:07.864Z,96.50
2019-01-05T09:53:05.957Z,96.50
2019-01-05T09:54:05.059Z,96.50
2019-01-05T09:55:05.148Z,96.50
2019-01-05T09:56:05.373Z,96.50
2019-01-05T09:57:10.721Z,96.50
2019-01-05T09:58:05.699Z,96.50
2019-01-05T09:59:05.950Z,96.60
2019-01-05T10:00:05.066Z,96.50
2019-01-05T10:01:10.141Z,96.50
2019-01-05T10:02:05.124Z,96.50
2019-01-05T10:03:05.213Z,96.50
2019-01-05T10:04:05.205Z,96.50
2019-01-05T10:05:05.177Z,96.50
2019-01-05T10:06:05.179Z,96.50
2019-01-05T10:07:05.157Z,96.50
2019-01-05T10:08:07.877Z,96.50
2019-01-05T10:09:05.852Z,96.50
2019-01-05T10:10:08.451Z,96.60
2019-01-05T10:11:05.391Z,96.60
2019-01-05T10:12:05.540Z,96.60
2019-01-05T10:13:05.736Z,96.60
2019-01-05T10:14:08.471Z,96.60
2019-01-05T10:15:07.993Z,96.60
2019-01-05T10:16:05.915Z,96.60
2019-01-05T10:17:06.171Z,96.60
2019-01-05T10:18:05.858Z,96.50
2019-01-05T10:19:05.123Z,96.60
2019-01-05T10:20:07.851Z,96.60
2019-01-05T10:21:05.792Z,96.60
2019-01-05T10:22:05.854Z,96.60
2019-01-05T10:23:08.495Z,96.70
2019-01-05T10:24:08.130Z,96.70
2019-01-05T10:25:05.106Z,96.70
2019-01-05T10:26:10.368Z,96.60
2019-01-05T10:27:05.354Z,96.70
2019-01-05T10:28:05.435Z,96.60
2019-01-05T10:29:05.601Z,96.60
2019-01-05T10:30:05.076Z,96.60
2019-01-05T10:31:05.169Z,96.60
2019-01-05T10:32:05.359Z,96.70
2019-01-05T10:33:05.495Z,96.60
2019-01-05T10:34:05.596Z,96.60
2019-01-05T10:35:05.691Z,96.60
2019-01-05T10:36:05.749Z,96.60
2019-01-05T10:37:08.336Z,96.60
2019-01-05T10:38:05.268Z,96.60
2019-01-05T10:39:05.334Z,96.60
2019-01-05T10:40:05.417Z,96.60
2019-01-05T10:41:05.565Z,96.60
2019-01-05T10:42:08.239Z,96.60
2019-01-05T10:43:05.300Z,96.70
2019-01-05T10:44:05.552Z,96.60
2019-01-05T10:45:08.227Z,96.60
2019-01-05T10:46:10.353Z,96.70
2019-01-05T10:47:07.833Z,96.60
2019-01-05T10:48:05.940Z,96.60
2019-01-05T10:49:05.147Z,96.70
2019-01-05T10:50:05.242Z,96.60
2019-01-05T10:51:05.636Z,96.60
2019-01-05T10:52:06.108Z,96.70
2019-01-05T10:53:11.804Z,96.60
2019-01-05T10:54:05.964Z,96.70
2019-01-05T10:55:05.961Z,96.70
2019-01-05T10:56:09.532Z,96.70
2019-01-05T10:57:05.645Z,96.60
2019-01-05T10:58:05.904Z,96.70
2019-01-05T10:59:06.147Z,96.60
2019-01-05T11:00:06.175Z,96.60
2019-01-05T11:01:05.626Z,96.70
2019-01-05T11:02:06.247Z,96.60
2019-01-05T11:03:10.945Z,96.70
2019-01-05T11:04:06.887Z,96.60
2019-01-05T11:05:07.002Z,96.60
2019-01-05T11:06:06.176Z,96.70
2019-01-05T11:07:06.140Z,96.60
2019-01-05T11:08:07.601Z,96.70
2019-01-05T11:09:08.037Z,96.70
2019-01-05T11:10:12.308Z,96.70
2019-01-05T11:11:11.393Z,96.60
2019-01-05T11:12:06.414Z,96.60
2019-01-05T11:13:07.821Z,96.60
2019-01-05T11:14:11.570Z,96.60
2019-01-05T11:15:06.185Z,96.60
2019-01-05T11:16:06.851Z,96.50
2019-01-05T11:17:06.165Z,96.60
2019-01-05T11:18:05.484Z,96.50
2019-01-05T11:19:17.521Z,96.50
2019-01-05T11:20:08.259Z,96.50
2019-01-05T11:21:06.042Z,96.50
2019-01-05T11:22:05.580Z,96.40
2019-01-05T11:23:08.298Z,96.40
2019-01-05T11:24:05.182Z,96.40
2019-01-05T11:25:05.325Z,96.40
2019-01-05T11:26:07.949Z,96.40
2019-01-05T11:27:08.348Z,96.40
2019-01-05T11:28:05.206Z,96.40
2019-01-05T11:29:07.763Z,96.40
2019-01-05T11:30:05.704Z,96.40
2019-01-05T11:31:08.231Z,96.40
2019-01-05T11:32:05.079Z,96.40
2019-01-05T11:33:05.056Z,96.40
2019-01-05T11:34:05.118Z,96.40
2019-01-05T11:35:05.115Z,96.40
2019-01-05T11:36:06.020Z,96.40
2019-01-05T11:37:05.653Z,96.40
2019-01-05T11:38:05.757Z,96.40
2019-01-05T11:39:13.440Z,96.30
2019-01-05T11:40:05.304Z,96.30
2019-01-05T11:41:08.076Z,96.30
2019-01-05T11:42:07.737Z,96.30
2019-01-05T11:43:08.286Z,96.30
2019-01-05T11:44:05.913Z,96.30
2019-01-05T11:45:06.102Z,96.30
2019-01-05T11:46:05.589Z,96.20
2019-01-05T11:47:05.872Z,96.30
2019-01-05T11:48:06.176Z,96.30
2019-01-05T11:49:05.556Z,96.40
2019-01-05T11:50:07.384Z,96.40
2019-01-05T11:51:05.663Z,96.20
2019-01-05T11:52:05.938Z,96.40
2019-01-05T11:53:06.076Z,96.40
2019-01-05T11:54:05.145Z,96.40
2019-01-05T11:55:08.784Z,96.40
2019-01-05T11:56:05.499Z,96.20
2019-01-05T11:57:05.808Z,96.30
2019-01-05T11:58:08.424Z,96.30
2019-01-05T11:59:05.273Z,96.20
2019-01-05T12:00:07.955Z,96.20
2019-01-05T12:01:08.709Z,96.20
2019-01-05T12:02:05.999Z,96.20
2019-01-05T12:03:05.118Z,96.20
2019-01-05T12:04:07.762Z,96.20
2019-01-05T12:05:05.960Z,96.20
2019-01-05T12:06:05.165Z,96.20
2019-01-05T12:07:05.377Z,96.10
2019-01-05T12:08:05.460Z,96.10
2019-01-05T12:09:08.373Z,96.20
2019-01-05T12:10:07.979Z,96.20
2019-01-05T12:11:06.062Z,96.10
2019-01-05T12:12:05.151Z,96.10
2019-01-05T12:13:05.142Z,96.10
2019-01-05T12:14:05.140Z,96.10
2019-01-05T12:15:07.699Z,96.10
2019-01-05T12:16:05.566Z,96.10
2019-01-05T12:17:10.705Z,96.10
2019-01-05T12:18:05.559Z,96.10
2019-01-05T12:19:05.568Z,96.10
2019-01-05T12:20:05.603Z,96.00
2019-01-05T12:21:06.724Z,96.10
2019-01-05T12:22:06.169Z,96.00
2019-01-05T12:23:06.450Z,96.00
2019-01-05T12:24:09.563Z,96.00
2019-01-05T12:25:06.116Z,96.00
2019-01-05T12:26:06.937Z,96.00
2019-01-05T12:27:11.571Z,95.90
2019-01-05T12:28:05.870Z,96.00
2019-01-05T12:29:06.222Z,95.90
2019-01-05T12:30:07.967Z,96.00
2019-01-05T12:31:05.963Z,95.90
2019-01-05T12:32:07.571Z,95.90
2019-01-05T12:33:08.133Z,95.90
2019-01-05T12:34:05.048Z,96.00
2019-01-05T12:35:05.075Z,96.00
2019-01-05T12:36:05.168Z,96.00
2019-01-05T12:37:06.563Z,96.00
2019-01-05T12:38:05.531Z,95.90
2019-01-05T12:39:08.086Z,95.90
2019-01-05T12:40:07.563Z,95.90
2019-01-05T12:41:07.936Z,95.90
2019-01-05T12:42:08.280Z,95.90
2019-01-05T12:43:12.874Z,95.90
2019-01-05T12:44:05.932Z,95.90
2019-01-05T12:45:05.962Z,95.90
2019-01-05T12:46:07.517Z,95.90
2019-01-05T12:47:08.155Z,95.80
2019-01-05T12:48:07.662Z,95.90
2019-01-05T12:49:05.600Z,95.90
2019-01-05T12:50:07.698Z,95.80
2019-01-05T12:51:08.227Z,95.80
2019-01-05T12:52:05.211Z,95.80